sensor_id;sensor_type;location;lat;lon;timestamp;P1;durP1;ratioP1;P2;durP2;ratioP2
59856;SDS011;45733;52.668;6.860;2024-03-22T00:00:41;5.05;;;4.75;;
59856;SDS011;45733;52.668;6.860;2024-03-22T00:03:07;5.38;;;5.03;;
59856;SDS011;45733;52.668;6.860;2024-03-22T00:05:32;5.32;;;4.97;;
59856;SDS011;45733;52.668;6.860;2024-03-22T00:07:58;5.72;;;5.32;;
59856;SDS011;45733;52.668;6.860;2024-03-22T00:10:24;5.72;;;5.32;;
59856;SDS011;45733;52.668;6.860;2024-03-22T00:12:50;6.50;;;6.10;;
59856;SDS011;45733;52.668;6.860;2024-03-22T00:15:15;5.45;;;5.07;;
59856;SDS011;45733;52.668;6.860;2024-03-22T00:17:44;5.55;;;5.15;;
59856;SDS011;45733;52.668;6.860;2024-03-22T00:20:10;5.50;;;5.00;;
59856;SDS011;45733;52.668;6.860;2024-03-22T00:22:36;5.47;;;5.10;;
59856;SDS011;45733;52.668;6.860;2024-03-22T00:25:02;5.55;;;5.15;;
59856;SDS011;45733;52.668;6.860;2024-03-22T00:27:27;5.68;;;5.28;;
59856;SDS011;45733;52.668;6.860;2024-03-22T00:29:53;5.22;;;4.90;;
59856;SDS011;45733;52.668;6.860;2024-03-22T00:32:19;4.88;;;4.57;;
59856;SDS011;45733;52.668;6.860;2024-03-22T00:34:45;4.75;;;4.45;;
59856;SDS011;45733;52.668;6.860;2024-03-22T00:37:10;5.22;;;4.90;;
59856;SDS011;45733;52.668;6.860;2024-03-22T00:39:36;5.18;;;4.85;;
59856;SDS011;45733;52.668;6.860;2024-03-22T00:42:02;4.93;;;4.63;;
59856;SDS011;45733;52.668;6.860;2024-03-22T00:44:28;4.63;;;4.32;;
59856;SDS011;45733;52.668;6.860;2024-03-22T00:46:53;5.15;;;4.82;;
59856;SDS011;45733;52.668;6.860;2024-03-22T00:49:19;4.90;;;4.60;;
59856;SDS011;45733;52.668;6.860;2024-03-22T00:51:45;5.13;;;4.80;;
59856;SDS011;45733;52.668;6.860;2024-03-22T00:54:12;5.15;;;4.82;;
59856;SDS011;45733;52.668;6.860;2024-03-22T00:56:38;5.00;;;4.70;;
59856;SDS011;45733;52.668;6.860;2024-03-22T00:59:03;4.57;;;4.28;;
59856;SDS011;45733;52.668;6.860;2024-03-22T01:01:29;4.78;;;4.47;;
59856;SDS011;45733;52.668;6.860;2024-03-22T01:03:55;4.75;;;4.45;;
59856;SDS011;45733;52.668;6.860;2024-03-22T01:06:20;4.95;;;4.65;;
59856;SDS011;45733;52.668;6.860;2024-03-22T01:08:50;4.53;;;4.22;;
59856;SDS011;45733;52.668;6.860;2024-03-22T01:11:16;4.68;;;4.38;;
59856;SDS011;45733;52.668;6.860;2024-03-22T01:13:42;4.50;;;4.20;;
59856;SDS011;45733;52.668;6.860;2024-03-22T01:16:08;4.65;;;4.35;;
59856;SDS011;45733;52.668;6.860;2024-03-22T01:18:35;4.55;;;4.25;;
59856;SDS011;45733;52.668;6.860;2024-03-22T01:21:01;4.70;;;4.40;;
59856;SDS011;45733;52.668;6.860;2024-03-22T01:23:27;4.80;;;4.50;;
59856;SDS011;45733;52.668;6.860;2024-03-22T01:25:52;4.53;;;4.22;;
59856;SDS011;45733;52.668;6.860;2024-03-22T01:28:18;4.70;;;4.40;;
59856;SDS011;45733;52.668;6.860;2024-03-22T01:30:44;4.72;;;4.43;;
59856;SDS011;45733;52.668;6.860;2024-03-22T01:33:09;4.75;;;4.45;;
59856;SDS011;45733;52.668;6.860;2024-03-22T01:35:35;4.80;;;4.50;;
59856;SDS011;45733;52.668;6.860;2024-03-22T01:38:00;4.55;;;4.25;;
59856;SDS011;45733;52.668;6.860;2024-03-22T01:40:26;4.72;;;4.43;;
59856;SDS011;45733;52.668;6.860;2024-03-22T01:42:55;4.72;;;4.43;;
59856;SDS011;45733;52.668;6.860;2024-03-22T01:45:21;4.68;;;4.38;;
59856;SDS011;45733;52.668;6.860;2024-03-22T01:47:49;4.93;;;4.63;;
59856;SDS011;45733;52.668;6.860;2024-03-22T01:50:21;4.70;;;4.40;;
59856;SDS011;45733;52.668;6.860;2024-03-22T01:52:47;4.90;;;4.60;;
59856;SDS011;45733;52.668;6.860;2024-03-22T01:55:13;4.68;;;4.38;;
59856;SDS011;45733;52.668;6.860;2024-03-22T01:57:39;4.82;;;4.53;;
59856;SDS011;45733;52.668;6.860;2024-03-22T02:00:06;4.70;;;4.40;;
59856;SDS011;45733;52.668;6.860;2024-03-22T02:02:33;4.75;;;4.45;;
59856;SDS011;45733;52.668;6.860;2024-03-22T02:04:59;5.05;;;4.75;;
59856;SDS011;45733;52.668;6.860;2024-03-22T02:07:36;4.90;;;4.60;;
59856;SDS011;45733;52.668;6.860;2024-03-22T02:10:01;4.68;;;4.38;;
59856;SDS011;45733;52.668;6.860;2024-03-22T02:12:27;4.65;;;4.35;;
59856;SDS011;45733;52.668;6.860;2024-03-22T02:14:53;4.65;;;4.35;;
59856;SDS011;45733;52.668;6.860;2024-03-22T02:17:22;4.38;;;4.07;;
59856;SDS011;45733;52.668;6.860;2024-03-22T02:19:48;4.65;;;4.35;;
59856;SDS011;45733;52.668;6.860;2024-03-22T02:22:13;4.70;;;4.40;;
59856;SDS011;45733;52.668;6.860;2024-03-22T02:24:39;4.70;;;4.40;;
59856;SDS011;45733;52.668;6.860;2024-03-22T02:27:04;4.88;;;4.57;;
59856;SDS011;45733;52.668;6.860;2024-03-22T02:29:30;4.68;;;4.38;;
59856;SDS011;45733;52.668;6.860;2024-03-22T02:31:56;4.70;;;4.40;;
59856;SDS011;45733;52.668;6.860;2024-03-22T02:34:23;4.75;;;4.45;;
59856;SDS011;45733;52.668;6.860;2024-03-22T02:36:49;5.15;;;4.85;;
59856;SDS011;45733;52.668;6.860;2024-03-22T02:39:14;4.63;;;4.32;;
59856;SDS011;45733;52.668;6.860;2024-03-22T02:41:40;4.43;;;4.13;;
59856;SDS011;45733;52.668;6.860;2024-03-22T02:44:06;4.63;;;4.32;;
59856;SDS011;45733;52.668;6.860;2024-03-22T02:46:31;4.65;;;4.35;;
59856;SDS011;45733;52.668;6.860;2024-03-22T02:48:57;4.70;;;4.40;;
59856;SDS011;45733;52.668;6.860;2024-03-22T02:51:23;4.70;;;4.40;;
59856;SDS011;45733;52.668;6.860;2024-03-22T02:53:48;4.82;;;4.53;;
59856;SDS011;45733;52.668;6.860;2024-03-22T02:56:14;4.82;;;4.53;;
59856;SDS011;45733;52.668;6.860;2024-03-22T02:58:40;4.88;;;4.57;;
59856;SDS011;45733;52.668;6.860;2024-03-22T03:01:06;4.63;;;4.32;;
59856;SDS011;45733;52.668;6.860;2024-03-22T03:03:31;4.80;;;4.50;;
59856;SDS011;45733;52.668;6.860;2024-03-22T03:05:57;5.00;;;4.70;;
59856;SDS011;45733;52.668;6.860;2024-03-22T03:08:23;4.97;;;4.68;;
59856;SDS011;45733;52.668;6.860;2024-03-22T03:10:49;4.70;;;4.40;;
59856;SDS011;45733;52.668;6.860;2024-03-22T03:13:14;4.85;;;4.55;;
59856;SDS011;45733;52.668;6.860;2024-03-22T03:15:40;5.00;;;4.70;;
59856;SDS011;45733;52.668;6.860;2024-03-22T03:18:06;4.97;;;4.68;;
59856;SDS011;45733;52.668;6.860;2024-03-22T03:20:31;4.97;;;4.68;;
59856;SDS011;45733;52.668;6.860;2024-03-22T03:22:57;5.35;;;5.00;;
59856;SDS011;45733;52.668;6.860;2024-03-22T03:25:24;5.40;;;5.00;;
59856;SDS011;45733;52.668;6.860;2024-03-22T03:27:51;5.15;;;4.85;;
59856;SDS011;45733;52.668;6.860;2024-03-22T03:30:17;5.38;;;5.03;;
59856;SDS011;45733;52.668;6.860;2024-03-22T03:32:42;5.03;;;4.72;;
59856;SDS011;45733;52.668;6.860;2024-03-22T03:35:08;5.13;;;4.80;;
59856;SDS011;45733;52.668;6.860;2024-03-22T03:37:34;5.30;;;4.95;;
59856;SDS011;45733;52.668;6.860;2024-03-22T03:39:59;5.28;;;4.93;;
59856;SDS011;45733;52.668;6.860;2024-03-22T03:42:25;5.25;;;4.93;;
59856;SDS011;45733;52.668;6.860;2024-03-22T03:44:51;5.57;;;5.18;;
59856;SDS011;45733;52.668;6.860;2024-03-22T03:47:16;5.47;;;5.10;;
59856;SDS011;45733;52.668;6.860;2024-03-22T03:49:42;5.20;;;4.88;;
59856;SDS011;45733;52.668;6.860;2024-03-22T03:52:10;5.20;;;4.88;;
59856;SDS011;45733;52.668;6.860;2024-03-22T03:54:36;5.80;;;5.40;;
59856;SDS011;45733;52.668;6.860;2024-03-22T03:57:02;5.20;;;4.88;;
59856;SDS011;45733;52.668;6.860;2024-03-22T03:59:27;5.32;;;4.97;;
59856;SDS011;45733;52.668;6.860;2024-03-22T04:01:54;5.63;;;5.22;;
59856;SDS011;45733;52.668;6.860;2024-03-22T04:04:19;5.82;;;5.43;;
59856;SDS011;45733;52.668;6.860;2024-03-22T04:06:45;5.68;;;5.28;;
59856;SDS011;45733;52.668;6.860;2024-03-22T04:09:26;5.60;;;5.20;;
59856;SDS011;45733;52.668;6.860;2024-03-22T04:11:52;5.47;;;5.07;;
59856;SDS011;45733;52.668;6.860;2024-03-22T04:14:17;5.40;;;5.03;;
59856;SDS011;45733;52.668;6.860;2024-03-22T04:16:43;5.47;;;5.07;;
59856;SDS011;45733;52.668;6.860;2024-03-22T04:19:09;5.65;;;5.25;;
59856;SDS011;45733;52.668;6.860;2024-03-22T04:21:35;5.55;;;5.15;;
59856;SDS011;45733;52.668;6.860;2024-03-22T04:24:00;5.72;;;5.32;;
59856;SDS011;45733;52.668;6.860;2024-03-22T04:26:26;5.93;;;5.53;;
59856;SDS011;45733;52.668;6.860;2024-03-22T04:28:52;5.80;;;5.40;;
59856;SDS011;45733;52.668;6.860;2024-03-22T04:31:18;5.70;;;5.30;;
59856;SDS011;45733;52.668;6.860;2024-03-22T04:33:43;5.60;;;5.20;;
59856;SDS011;45733;52.668;6.860;2024-03-22T04:36:09;5.85;;;5.45;;
59856;SDS011;45733;52.668;6.860;2024-03-22T04:38:35;6.05;;;5.65;;
59856;SDS011;45733;52.668;6.860;2024-03-22T04:41:00;5.88;;;5.47;;
59856;SDS011;45733;52.668;6.860;2024-03-22T04:43:28;5.90;;;5.50;;
59856;SDS011;45733;52.668;6.860;2024-03-22T04:45:54;5.88;;;5.47;;
59856;SDS011;45733;52.668;6.860;2024-03-22T04:48:20;5.97;;;5.57;;
59856;SDS011;45733;52.668;6.860;2024-03-22T04:50:47;5.80;;;5.40;;
59856;SDS011;45733;52.668;6.860;2024-03-22T04:53:15;5.80;;;5.40;;
59856;SDS011;45733;52.668;6.860;2024-03-22T04:55:42;5.60;;;5.20;;
59856;SDS011;45733;52.668;6.860;2024-03-22T04:58:11;5.30;;;4.97;;
59856;SDS011;45733;52.668;6.860;2024-03-22T05:00:38;5.50;;;5.10;;
59856;SDS011;45733;52.668;6.860;2024-03-22T05:03:03;5.50;;;5.10;;
59856;SDS011;45733;52.668;6.860;2024-03-22T05:05:29;5.63;;;5.22;;
59856;SDS011;45733;52.668;6.860;2024-03-22T05:07:55;6.13;;;5.72;;
59856;SDS011;45733;52.668;6.860;2024-03-22T05:10:20;5.80;;;5.40;;
59856;SDS011;45733;52.668;6.860;2024-03-22T05:12:49;5.60;;;5.20;;
59856;SDS011;45733;52.668;6.860;2024-03-22T05:15:15;5.28;;;4.95;;
59856;SDS011;45733;52.668;6.860;2024-03-22T05:17:40;5.35;;;4.97;;
59856;SDS011;45733;52.668;6.860;2024-03-22T05:20:08;5.15;;;4.85;;
59856;SDS011;45733;52.668;6.860;2024-03-22T05:22:36;5.53;;;5.13;;
59856;SDS011;45733;52.668;6.860;2024-03-22T05:25:02;5.47;;;5.07;;
59856;SDS011;45733;52.668;6.860;2024-03-22T05:27:30;5.15;;;4.82;;
59856;SDS011;45733;52.668;6.860;2024-03-22T05:29:56;4.93;;;4.63;;
59856;SDS011;45733;52.668;6.860;2024-03-22T05:32:21;5.35;;;5.00;;
59856;SDS011;45733;52.668;6.860;2024-03-22T05:34:47;4.95;;;4.65;;
59856;SDS011;45733;52.668;6.860;2024-03-22T05:37:13;5.25;;;4.93;;
59856;SDS011;45733;52.668;6.860;2024-03-22T05:39:38;5.30;;;4.95;;
59856;SDS011;45733;52.668;6.860;2024-03-22T05:42:07;5.25;;;4.93;;
59856;SDS011;45733;52.668;6.860;2024-03-22T05:44:33;5.22;;;4.90;;
59856;SDS011;45733;52.668;6.860;2024-03-22T05:46:58;5.15;;;4.85;;
59856;SDS011;45733;52.668;6.860;2024-03-22T05:49:24;5.28;;;4.93;;
59856;SDS011;45733;52.668;6.860;2024-03-22T05:51:50;5.32;;;4.97;;
59856;SDS011;45733;52.668;6.860;2024-03-22T05:54:15;5.50;;;5.10;;
59856;SDS011;45733;52.668;6.860;2024-03-22T05:56:41;5.07;;;4.78;;
59856;SDS011;45733;52.668;6.860;2024-03-22T05:59:07;5.18;;;4.85;;
59856;SDS011;45733;52.668;6.860;2024-03-22T06:01:32;5.65;;;5.25;;
59856;SDS011;45733;52.668;6.860;2024-03-22T06:03:58;5.65;;;5.25;;
59856;SDS011;45733;52.668;6.860;2024-03-22T06:06:24;5.65;;;5.25;;
59856;SDS011;45733;52.668;6.860;2024-03-22T06:08:52;5.75;;;5.35;;
59856;SDS011;45733;52.668;6.860;2024-03-22T06:11:19;5.68;;;5.28;;
59856;SDS011;45733;52.668;6.860;2024-03-22T06:13:47;5.45;;;5.07;;
59856;SDS011;45733;52.668;6.860;2024-03-22T06:16:12;5.43;;;5.05;;
59856;SDS011;45733;52.668;6.860;2024-03-22T06:18:39;5.60;;;5.20;;
59856;SDS011;45733;52.668;6.860;2024-03-22T06:21:05;5.88;;;5.47;;
59856;SDS011;45733;52.668;6.860;2024-03-22T06:23:31;6.22;;;5.82;;
59856;SDS011;45733;52.668;6.860;2024-03-22T06:25:57;5.72;;;5.32;;
59856;SDS011;45733;52.668;6.860;2024-03-22T06:28:24;5.90;;;5.50;;
59856;SDS011;45733;52.668;6.860;2024-03-22T06:30:50;5.93;;;5.53;;
59856;SDS011;45733;52.668;6.860;2024-03-22T06:33:18;5.85;;;5.45;;
59856;SDS011;45733;52.668;6.860;2024-03-22T06:35:44;6.72;;;6.22;;
59856;SDS011;45733;52.668;6.860;2024-03-22T06:38:10;6.13;;;5.72;;
59856;SDS011;45733;52.668;6.860;2024-03-22T06:40:36;6.20;;;5.80;;
59856;SDS011;45733;52.668;6.860;2024-03-22T06:43:02;6.93;;;6.50;;
59856;SDS011;45733;52.668;6.860;2024-03-22T06:45:27;6.90;;;6.50;;
59856;SDS011;45733;52.668;6.860;2024-03-22T06:47:53;6.43;;;6.03;;
59856;SDS011;45733;52.668;6.860;2024-03-22T06:50:19;6.13;;;5.72;;
59856;SDS011;45733;52.668;6.860;2024-03-22T06:52:49;6.70;;;6.30;;
59856;SDS011;45733;52.668;6.860;2024-03-22T06:55:18;5.40;;;5.07;;
59856;SDS011;45733;52.668;6.860;2024-03-22T06:57:45;5.10;;;4.80;;
59856;SDS011;45733;52.668;6.860;2024-03-22T07:00:12;5.00;;;4.70;;
59856;SDS011;45733;52.668;6.860;2024-03-22T07:02:38;4.70;;;4.43;;
59856;SDS011;45733;52.668;6.860;2024-03-22T07:05:05;4.45;;;4.18;;
59856;SDS011;45733;52.668;6.860;2024-03-22T07:07:32;3.38;;;3.17;;
59856;SDS011;45733;52.668;6.860;2024-03-22T07:09:58;3.38;;;3.17;;
59856;SDS011;45733;52.668;6.860;2024-03-22T07:12:23;2.47;;;2.38;;
59856;SDS011;45733;52.668;6.860;2024-03-22T07:14:49;2.45;;;2.35;;
59856;SDS011;45733;52.668;6.860;2024-03-22T07:17:15;2.33;;;2.22;;
59856;SDS011;45733;52.668;6.860;2024-03-22T07:19:41;2.33;;;2.22;;
59856;SDS011;45733;52.668;6.860;2024-03-22T07:22:07;2.20;;;2.10;;
59856;SDS011;45733;52.668;6.860;2024-03-22T07:24:33;2.30;;;2.20;;
59856;SDS011;45733;52.668;6.860;2024-03-22T07:26:59;2.30;;;2.20;;
59856;SDS011;45733;52.668;6.860;2024-03-22T07:29:25;2.20;;;2.10;;
59856;SDS011;45733;52.668;6.860;2024-03-22T07:31:50;2.20;;;2.10;;
59856;SDS011;45733;52.668;6.860;2024-03-22T07:34:16;2.10;;;2.00;;
59856;SDS011;45733;52.668;6.860;2024-03-22T07:36:41;2.05;;;1.95;;
59856;SDS011;45733;52.668;6.860;2024-03-22T07:39:07;2.10;;;2.00;;
59856;SDS011;45733;52.668;6.860;2024-03-22T07:41:33;2.08;;;1.98;;
59856;SDS011;45733;52.668;6.860;2024-03-22T07:43:59;2.30;;;2.20;;
59856;SDS011;45733;52.668;6.860;2024-03-22T07:46:26;2.00;;;1.90;;
59856;SDS011;45733;52.668;6.860;2024-03-22T07:48:51;2.17;;;2.08;;
59856;SDS011;45733;52.668;6.860;2024-03-22T07:51:17;2.10;;;2.00;;
59856;SDS011;45733;52.668;6.860;2024-03-22T07:53:44;2.00;;;1.90;;
59856;SDS011;45733;52.668;6.860;2024-03-22T07:56:09;2.03;;;1.92;;
59856;SDS011;45733;52.668;6.860;2024-03-22T07:58:35;2.03;;;1.92;;
59856;SDS011;45733;52.668;6.860;2024-03-22T08:01:00;2.00;;;1.90;;
59856;SDS011;45733;52.668;6.860;2024-03-22T08:03:27;2.00;;;1.90;;
59856;SDS011;45733;52.668;6.860;2024-03-22T08:05:53;2.05;;;1.95;;
59856;SDS011;45733;52.668;6.860;2024-03-22T08:08:18;2.00;;;1.90;;
59856;SDS011;45733;52.668;6.860;2024-03-22T08:10:44;1.90;;;1.80;;
59856;SDS011;45733;52.668;6.860;2024-03-22T08:13:09;2.00;;;1.90;;
59856;SDS011;45733;52.668;6.860;2024-03-22T08:15:36;2.13;;;2.03;;
59856;SDS011;45733;52.668;6.860;2024-03-22T08:18:01;2.00;;;1.90;;
59856;SDS011;45733;52.668;6.860;2024-03-22T08:20:27;2.10;;;2.00;;
59856;SDS011;45733;52.668;6.860;2024-03-22T08:22:53;1.83;;;1.73;;
59856;SDS011;45733;52.668;6.860;2024-03-22T08:25:19;1.95;;;1.85;;
59856;SDS011;45733;52.668;6.860;2024-03-22T08:27:46;2.00;;;1.90;;
59856;SDS011;45733;52.668;6.860;2024-03-22T08:30:12;4.72;;;2.40;;
59856;SDS011;45733;52.668;6.860;2024-03-22T08:32:38;1.92;;;1.83;;
59856;SDS011;45733;52.668;6.860;2024-03-22T08:35:07;2.05;;;1.95;;
59856;SDS011;45733;52.668;6.860;2024-03-22T08:37:33;2.33;;;2.22;;
59856;SDS011;45733;52.668;6.860;2024-03-22T08:39:59;2.10;;;2.00;;
59856;SDS011;45733;52.668;6.860;2024-03-22T08:42:24;2.03;;;1.92;;
59856;SDS011;45733;52.668;6.860;2024-03-22T08:44:50;1.92;;;1.83;;
59856;SDS011;45733;52.668;6.860;2024-03-22T08:47:16;2.08;;;1.98;;
59856;SDS011;45733;52.668;6.860;2024-03-22T08:49:41;2.00;;;1.90;;
59856;SDS011;45733;52.668;6.860;2024-03-22T08:52:09;2.45;;;2.25;;
59856;SDS011;45733;52.668;6.860;2024-03-22T08:54:35;1.98;;;1.88;;
59856;SDS011;45733;52.668;6.860;2024-03-22T08:57:01;2.03;;;1.92;;
59856;SDS011;45733;52.668;6.860;2024-03-22T08:59:26;2.13;;;2.03;;
59856;SDS011;45733;52.668;6.860;2024-03-22T09:01:52;2.13;;;2.03;;
59856;SDS011;45733;52.668;6.860;2024-03-22T09:04:18;2.08;;;1.98;;
59856;SDS011;45733;52.668;6.860;2024-03-22T09:06:44;2.17;;;2.08;;
59856;SDS011;45733;52.668;6.860;2024-03-22T09:09:10;2.10;;;2.00;;
59856;SDS011;45733;52.668;6.860;2024-03-22T09:11:36;2.28;;;2.17;;
59856;SDS011;45733;52.668;6.860;2024-03-22T09:14:02;2.33;;;2.22;;
59856;SDS011;45733;52.668;6.860;2024-03-22T09:16:27;2.17;;;2.08;;
59856;SDS011;45733;52.668;6.860;2024-03-22T09:18:53;2.22;;;2.13;;
59856;SDS011;45733;52.668;6.860;2024-03-22T09:21:22;2.22;;;2.13;;
59856;SDS011;45733;52.668;6.860;2024-03-22T09:23:59;2.00;;;1.90;;
59856;SDS011;45733;52.668;6.860;2024-03-22T09:26:24;2.38;;;2.28;;
59856;SDS011;45733;52.668;6.860;2024-03-22T09:28:50;2.33;;;2.22;;
59856;SDS011;45733;52.668;6.860;2024-03-22T09:31:16;2.45;;;2.35;;
59856;SDS011;45733;52.668;6.860;2024-03-22T09:33:42;2.35;;;2.25;;
59856;SDS011;45733;52.668;6.860;2024-03-22T09:36:08;2.35;;;2.25;;
59856;SDS011;45733;52.668;6.860;2024-03-22T09:38:34;2.53;;;2.42;;
59856;SDS011;45733;52.668;6.860;2024-03-22T09:41:00;2.63;;;2.50;;
59856;SDS011;45733;52.668;6.860;2024-03-22T09:43:26;2.58;;;2.45;;
59856;SDS011;45733;52.668;6.860;2024-03-22T09:45:53;2.58;;;2.45;;
59856;SDS011;45733;52.668;6.860;2024-03-22T09:48:20;2.80;;;2.63;;
59856;SDS011;45733;52.668;6.860;2024-03-22T09:50:46;2.75;;;2.60;;
59856;SDS011;45733;52.668;6.860;2024-03-22T09:53:17;2.45;;;2.35;;
59856;SDS011;45733;52.668;6.860;2024-03-22T09:55:44;2.97;;;2.78;;
59856;SDS011;45733;52.668;6.860;2024-03-22T09:58:12;2.60;;;2.47;;
59856;SDS011;45733;52.668;6.860;2024-03-22T10:00:37;3.17;;;2.97;;
59856;SDS011;45733;52.668;6.860;2024-03-22T10:03:03;2.65;;;2.50;;
59856;SDS011;45733;52.668;6.860;2024-03-22T10:05:30;2.55;;;2.42;;
59856;SDS011;45733;52.668;6.860;2024-03-22T10:07:56;2.88;;;2.70;;
59856;SDS011;45733;52.668;6.860;2024-03-22T10:10:22;2.92;;;2.75;;
59856;SDS011;45733;52.668;6.860;2024-03-22T10:12:48;3.03;;;2.83;;
59856;SDS011;45733;52.668;6.860;2024-03-22T10:15:14;3.10;;;2.90;;
59856;SDS011;45733;52.668;6.860;2024-03-22T10:17:41;2.92;;;2.75;;
59856;SDS011;45733;52.668;6.860;2024-03-22T10:20:07;3.30;;;3.10;;
59856;SDS011;45733;52.668;6.860;2024-03-22T10:22:57;3.10;;;2.90;;
59856;SDS011;45733;52.668;6.860;2024-03-22T10:25:25;3.03;;;2.83;;
59856;SDS011;45733;52.668;6.860;2024-03-22T10:27:53;3.25;;;3.05;;
59856;SDS011;45733;52.668;6.860;2024-03-22T10:30:19;3.10;;;2.90;;
59856;SDS011;45733;52.668;6.860;2024-03-22T10:32:46;3.20;;;3.00;;
59856;SDS011;45733;52.668;6.860;2024-03-22T10:35:14;3.08;;;2.88;;
59856;SDS011;45733;52.668;6.860;2024-03-22T10:37:40;2.97;;;2.80;;
59856;SDS011;45733;52.668;6.860;2024-03-22T10:40:06;3.50;;;3.30;;
59856;SDS011;45733;52.668;6.860;2024-03-22T10:42:36;3.40;;;3.20;;
59856;SDS011;45733;52.668;6.860;2024-03-22T10:45:03;3.33;;;3.13;;
59856;SDS011;45733;52.668;6.860;2024-03-22T10:47:31;3.53;;;3.33;;
59856;SDS011;45733;52.668;6.860;2024-03-22T10:50:03;3.50;;;3.30;;
59856;SDS011;45733;52.668;6.860;2024-03-22T10:52:38;3.60;;;3.40;;
59856;SDS011;45733;52.668;6.860;2024-03-22T10:55:24;3.40;;;3.20;;
59856;SDS011;45733;52.668;6.860;2024-03-22T10:57:56;3.28;;;3.08;;
59856;SDS011;45733;52.668;6.860;2024-03-22T11:00:29;3.47;;;3.28;;
59856;SDS011;45733;52.668;6.860;2024-03-22T11:02:59;3.63;;;3.42;;
59856;SDS011;45733;52.668;6.860;2024-03-22T11:05:27;3.65;;;3.45;;
59856;SDS011;45733;52.668;6.860;2024-03-22T11:08:05;3.78;;;3.55;;
59856;SDS011;45733;52.668;6.860;2024-03-22T11:10:34;3.72;;;3.50;;
59856;SDS011;45733;52.668;6.860;2024-03-22T11:13:07;3.60;;;3.40;;
59856;SDS011;45733;52.668;6.860;2024-03-22T11:18:03;3.72;;;3.50;;
59856;SDS011;45733;52.668;6.860;2024-03-22T11:20:31;3.53;;;3.33;;
59856;SDS011;45733;52.668;6.860;2024-03-22T11:22:57;3.40;;;3.20;;
59856;SDS011;45733;52.668;6.860;2024-03-22T11:25:22;3.58;;;3.38;;
59856;SDS011;45733;52.668;6.860;2024-03-22T11:27:48;3.40;;;3.20;;
59856;SDS011;45733;52.668;6.860;2024-03-22T11:30:17;4.50;;;4.10;;
59856;SDS011;45733;52.668;6.860;2024-03-22T11:32:43;3.50;;;3.30;;
59856;SDS011;45733;52.668;6.860;2024-03-22T11:35:10;3.50;;;3.30;;
59856;SDS011;45733;52.668;6.860;2024-03-22T11:37:40;3.58;;;3.38;;
59856;SDS011;45733;52.668;6.860;2024-03-22T11:40:08;3.20;;;3.00;;
59856;SDS011;45733;52.668;6.860;2024-03-22T11:42:35;3.58;;;3.38;;
59856;SDS011;45733;52.668;6.860;2024-03-22T11:45:02;3.38;;;3.17;;
59856;SDS011;45733;52.668;6.860;2024-03-22T11:47:29;3.28;;;3.08;;
59856;SDS011;45733;52.668;6.860;2024-03-22T11:49:55;3.40;;;3.20;;
59856;SDS011;45733;52.668;6.860;2024-03-22T11:52:27;3.50;;;3.30;;
59856;SDS011;45733;52.668;6.860;2024-03-22T11:54:54;3.30;;;3.10;;
59856;SDS011;45733;52.668;6.860;2024-03-22T11:57:20;3.38;;;3.17;;
59856;SDS011;45733;52.668;6.860;2024-03-22T11:59:46;3.60;;;3.40;;
59856;SDS011;45733;52.668;6.860;2024-03-22T12:02:12;3.08;;;2.90;;
59856;SDS011;45733;52.668;6.860;2024-03-22T12:04:47;3.30;;;3.10;;
59856;SDS011;45733;52.668;6.860;2024-03-22T12:07:13;3.40;;;3.20;;
59856;SDS011;45733;52.668;6.860;2024-03-22T12:09:40;3.63;;;3.42;;
59856;SDS011;45733;52.668;6.860;2024-03-22T12:12:07;3.40;;;3.20;;
59856;SDS011;45733;52.668;6.860;2024-03-22T12:14:34;3.50;;;3.30;;
59856;SDS011;45733;52.668;6.860;2024-03-22T12:17:04;3.30;;;3.10;;
59856;SDS011;45733;52.668;6.860;2024-03-22T12:19:32;3.15;;;2.95;;
59856;SDS011;45733;52.668;6.860;2024-03-22T12:21:58;3.30;;;3.10;;
59856;SDS011;45733;52.668;6.860;2024-03-22T12:24:24;3.47;;;3.28;;
59856;SDS011;45733;52.668;6.860;2024-03-22T12:26:50;3.65;;;3.45;;
59856;SDS011;45733;52.668;6.860;2024-03-22T12:29:16;3.47;;;3.28;;
59856;SDS011;45733;52.668;6.860;2024-03-22T12:31:42;3.75;;;3.53;;
59856;SDS011;45733;52.668;6.860;2024-03-22T12:34:08;3.38;;;3.17;;
59856;SDS011;45733;52.668;6.860;2024-03-22T12:36:35;3.30;;;3.10;;
59856;SDS011;45733;52.668;6.860;2024-03-22T12:39:01;3.38;;;3.17;;
59856;SDS011;45733;52.668;6.860;2024-03-22T12:41:28;3.40;;;3.20;;
59856;SDS011;45733;52.668;6.860;2024-03-22T12:43:55;3.45;;;3.25;;
59856;SDS011;45733;52.668;6.860;2024-03-22T12:46:21;3.30;;;3.10;;
59856;SDS011;45733;52.668;6.860;2024-03-22T12:48:46;3.40;;;3.20;;
59856;SDS011;45733;52.668;6.860;2024-03-22T12:51:12;3.58;;;3.38;;
59856;SDS011;45733;52.668;6.860;2024-03-22T12:53:38;3.42;;;3.22;;
59856;SDS011;45733;52.668;6.860;2024-03-22T12:56:04;3.25;;;3.05;;
59856;SDS011;45733;52.668;6.860;2024-03-22T12:58:30;3.28;;;3.08;;
59856;SDS011;45733;52.668;6.860;2024-03-22T13:00:56;3.10;;;2.90;;
59856;SDS011;45733;52.668;6.860;2024-03-22T13:03:22;3.25;;;3.05;;
59856;SDS011;45733;52.668;6.860;2024-03-22T13:05:48;3.30;;;3.10;;
59856;SDS011;45733;52.668;6.860;2024-03-22T13:08:13;3.20;;;3.00;;
59856;SDS011;45733;52.668;6.860;2024-03-22T13:10:39;3.38;;;3.17;;
59856;SDS011;45733;52.668;6.860;2024-03-22T13:13:11;3.30;;;3.10;;
59856;SDS011;45733;52.668;6.860;2024-03-22T13:15:44;3.63;;;3.40;;
59856;SDS011;45733;52.668;6.860;2024-03-22T13:18:12;3.03;;;2.85;;
59856;SDS011;45733;52.668;6.860;2024-03-22T13:20:38;3.30;;;3.10;;
59856;SDS011;45733;52.668;6.860;2024-03-22T13:23:04;2.95;;;2.78;;
59856;SDS011;45733;52.668;6.860;2024-03-22T13:25:30;3.30;;;3.10;;
59856;SDS011;45733;52.668;6.860;2024-03-22T13:27:55;3.15;;;2.95;;
59856;SDS011;45733;52.668;6.860;2024-03-22T13:30:21;3.20;;;3.00;;
59856;SDS011;45733;52.668;6.860;2024-03-22T13:32:47;3.22;;;3.03;;
59856;SDS011;45733;52.668;6.860;2024-03-22T13:35:13;3.47;;;3.28;;
59856;SDS011;45733;52.668;6.860;2024-03-22T13:37:39;3.42;;;3.22;;
59856;SDS011;45733;52.668;6.860;2024-03-22T13:40:06;3.03;;;2.85;;
59856;SDS011;45733;52.668;6.860;2024-03-22T13:42:32;3.20;;;3.00;;
59856;SDS011;45733;52.668;6.860;2024-03-22T13:44:58;3.72;;;3.50;;
59856;SDS011;45733;52.668;6.860;2024-03-22T13:47:24;3.58;;;3.38;;
59856;SDS011;45733;52.668;6.860;2024-03-22T13:49:50;3.63;;;3.42;;
59856;SDS011;45733;52.668;6.860;2024-03-22T13:52:16;3.38;;;3.17;;
59856;SDS011;45733;52.668;6.860;2024-03-22T13:54:43;4.05;;;3.80;;
59856;SDS011;45733;52.668;6.860;2024-03-22T13:57:08;3.70;;;3.50;;
59856;SDS011;45733;52.668;6.860;2024-03-22T13:59:34;3.65;;;3.45;;
59856;SDS011;45733;52.668;6.860;2024-03-22T14:02:01;3.83;;;3.60;;
59856;SDS011;45733;52.668;6.860;2024-03-22T14:04:26;3.17;;;2.97;;
59856;SDS011;45733;52.668;6.860;2024-03-22T14:06:54;3.60;;;3.40;;
59856;SDS011;45733;52.668;6.860;2024-03-22T14:09:19;3.38;;;3.17;;
59856;SDS011;45733;52.668;6.860;2024-03-22T14:11:45;3.10;;;2.90;;
59856;SDS011;45733;52.668;6.860;2024-03-22T14:14:13;3.05;;;2.88;;
59856;SDS011;45733;52.668;6.860;2024-03-22T14:16:39;2.88;;;2.70;;
59856;SDS011;45733;52.668;6.860;2024-03-22T14:19:06;2.88;;;2.70;;
59856;SDS011;45733;52.668;6.860;2024-03-22T14:21:33;2.88;;;2.70;;
59856;SDS011;45733;52.668;6.860;2024-03-22T14:23:59;2.97;;;2.80;;
59856;SDS011;45733;52.668;6.860;2024-03-22T14:26:25;2.55;;;2.42;;
59856;SDS011;45733;52.668;6.860;2024-03-22T14:28:51;2.28;;;2.17;;
59856;SDS011;45733;52.668;6.860;2024-03-22T14:31:17;2.33;;;2.22;;
59856;SDS011;45733;52.668;6.860;2024-03-22T14:33:44;2.40;;;2.30;;
59856;SDS011;45733;52.668;6.860;2024-03-22T14:36:10;3.17;;;2.90;;
59856;SDS011;45733;52.668;6.860;2024-03-22T14:38:38;2.40;;;2.30;;
59856;SDS011;45733;52.668;6.860;2024-03-22T14:41:04;2.70;;;2.55;;
59856;SDS011;45733;52.668;6.860;2024-03-22T14:43:30;2.50;;;2.38;;
59856;SDS011;45733;52.668;6.860;2024-03-22T14:46:01;2.40;;;2.30;;